TimeCST,TemperatureF,Dew PointF,Humidity,Sea Level PressureIn,VisibilityMPH,Wind Direction,Wind SpeedMPH,Gust SpeedMPH,PrecipitationIn,Events,Conditions,WindDirDegrees,DateUTC
12:54 AM,23.0,19.9,88,30.26,10.0,Calm,Calm,-,N/A,,Clear,0,2012-11-05 06:54:00
1:54 AM,25.0,21.0,85,30.27,10.0,Calm,Calm,-,N/A,,Clear,0,2012-11-05 07:54:00
3:54 AM,23.0,19.0,85,30.27,8.0,ENE,3.5,-,N/A,,Clear,60,2012-11-05 09:54:00
4:54 AM,21.9,19.0,89,30.27,8.0,ENE,3.5,-,N/A,,Clear,70,2012-11-05 10:54:00
6:54 AM,23.0,19.9,88,30.28,10.0,East,4.6,-,N/A,,Clear,80,2012-11-05 12:54:00
7:54 AM,27.0,23.0,85,30.29,10.0,East,5.8,-,N/A,,Clear,80,2012-11-05 13:54:00
8:54 AM,30.9,25.0,79,30.29,10.0,ENE,9.2,-,N/A,,Clear,70,2012-11-05 14:54:00
9:54 AM,35.1,25.0,67,30.29,10.0,ESE,8.1,-,N/A,,Clear,110,2012-11-05 15:54:00
10:54 AM,37.9,25.0,60,30.28,10.0,ENE,4.6,-,N/A,,Clear,70,2012-11-05 16:54:00
11:54 AM,39.9,25.0,55,30.26,10.0,Variable,4.6,-,N/A,,Clear,0,2012-11-05 17:54:00
12:54 PM,42.1,25.0,51,30.24,10.0,East,4.6,-,N/A,,Scattered Clouds,100,2012-11-05 18:54:00
1:54 PM,43.0,25.0,49,30.22,10.0,Calm,Calm,-,N/A,,Clear,0,2012-11-05 19:54:00
2:54 PM,43.0,24.1,47,30.20,10.0,ENE,4.6,-,N/A,,Clear,70,2012-11-05 20:54:00
4:54 PM,34.0,24.1,67,30.20,10.0,Calm,Calm,-,N/A,,Clear,0,2012-11-05 22:54:00
5:54 PM,28.9,21.9,75,30.19,10.0,ESE,3.5,-,N/A,,Clear,110,2012-11-05 23:54:00
6:54 PM,28.0,21.9,78,30.19,10.0,Calm,Calm,-,N/A,,Clear,0,2012-11-06 00:54:00
7:54 PM,27.0,21.0,78,30.19,10.0,Calm,Calm,-,N/A,,Clear,0,2012-11-06 01:54:00
8:54 PM,25.0,21.0,85,30.17,10.0,Calm,Calm,-,N/A,,Clear,0,2012-11-06 02:54:00
9:54 PM,28.9,23.0,78,30.13,10.0,SE,5.8,-,N/A,,Clear,140,2012-11-06 03:54:00
10:54 PM,28.9,23.0,78,30.12,10.0,South,5.8,-,N/A,,Clear,170,2012-11-06 04:54:00
11:54 PM,28.0,24.1,85,30.12,10.0,South,4.6,-,N/A,,Mostly Cloudy,170,2012-11-06 05:54:00